Terminal Aerodrome Forecast
Issued by NWS

Home | Current Version | Previous Version | Text Only | Print | Product List | Glossary On
Versions: 1 2 3 4 5 6 7 8 9 10 11 12 13 14 15 16 17 18 19
000
FTAK31 PAJN 301130
TAFAGY
TAF
PAGY 301130Z 3012/0112 21010KT P6SM VCSH BKN050 OVC080
      TEMPO 3012/3015 20010G20KT
     FM301800 VRB05KT P6SM -RA SCT030 OVC050
     FM302200 20008KT 6SM -RA OVC030
     FM010200 20020G30KT P6SM -RA BKN040 OVC060 WS020/18040KT
      AMD LTD TO CLD VIS AND WIND=

USA.gov is the U.S. government's official web portal to all federal, state and local government web resources and services.